Main page
METAR-TAF:

METAR-TAF

Airports :

Qurghonteppa International Airport

Qurghonteppa, Tajikistan

latitude: 37-51-44N, longitude: 068-51-46E, elevation: 449 m

Current weather observation

The report was made 30 minutes ago, at 19:30 UTC
Wind 2 kt from variable directions
Temperature 35°C
Humidity 53%
Pressure 1003 hPa
Visibility 10 km or more
Few clouds at a height of 10000 ft

METAR: UTDT 231930Z VRB01MPS 9999 FEW100 23/13 Q1003 35////// RMK QFE713/0951

Time: 01:00 (20:00 UTC)

Forecast

The report was made 2 hours and 0 minutes ago, at 18:00 UTC
Forecast valid from 23 at 19 UTC to 24 at 04 UTC
Wind 4 kt from variable directions
Visibility: 6000 m
Few clouds at a height of 6600 ft, Cumulonimbus.
Scattered clouds at a height of 10000 ft

TAF: UTDT 231800Z 2319/2404 VRB02MPS 6000 FEW066CB SCT100

Weather observations and forecasts of more than 4000 airports (METAR and TAF reports).

The available stations are represented by yellow and red dots on the map.

Hover mouse over dot to see the name of the station.

Then click to see weather observations and forecasts.

To change the map : click on the green buttons with a black cross to zoom in, on the green button with a dash to zoom out, or on the green arrows for adjacent maps.


METAR-TAF: